Time;durP1;ratioP1;P1;durP2;ratioP2;P2;SDS_P1;SDS_P2;PMS_P1;PMS_P2;Temp;Humidity;BMP_temperature;BMP_pressure;BME280_temperature;BME280_humidity;BME280_pressure;Samples;Min_cycle;Max_cycle;Signal;HPM_P1;HPM_P2
2023/04/19 00:00:29;;;;;;;8.77;6.50;;;9.90;99.90;;;;;;4980206;28;20035;-47
2023/04/19 00:03:16;;;;;;;8.23;6.25;;;9.80;99.90;;;;;;4975958;28;20027;-48
2023/04/19 00:06:03;;;;;;;8.27;6.45;;;9.70;99.90;;;;;;4969802;28;20035;-47
2023/04/19 00:08:49;;;;;;;8.13;6.80;;;9.70;99.90;;;;;;4977364;28;20034;-47
2023/04/19 00:11:35;;;;;;;11.82;7.30;;;9.70;99.90;;;;;;4968259;28;20035;-47
2023/04/19 00:14:21;;;;;;;11.68;6.63;;;9.60;99.90;;;;;;4972593;28;20038;-48
2023/04/19 00:17:07;;;;;;;9.13;6.63;;;9.60;99.90;;;;;;4972808;28;20027;-47
2023/04/19 00:19:53;;;;;;;9.45;7.15;;;9.60;99.90;;;;;;4949010;28;20074;-47
2023/04/19 00:22:39;;;;;;;9.93;7.53;;;9.60;99.90;;;;;;4971872;28;20040;-47
2023/04/19 00:25:25;;;;;;;10.18;6.90;;;9.50;99.90;;;;;;4970971;28;20472;-47
2023/04/19 00:28:11;;;;;;;10.38;7.55;;;9.50;99.90;;;;;;4969000;28;20030;-47
2023/04/19 00:30:57;;;;;;;10.10;8.13;;;9.40;99.90;;;;;;4971124;28;20027;-52
2023/04/19 00:33:43;;;;;;;9.48;7.18;;;9.30;99.90;;;;;;4983096;28;20085;-52
2023/04/19 00:36:29;;;;;;;10.60;7.20;;;9.40;99.90;;;;;;4971304;28;20530;-49
2023/04/19 00:39:15;;;;;;;9.43;6.90;;;9.40;99.90;;;;;;4968777;28;20056;-47
2023/04/19 00:42:01;;;;;;;11.23;7.63;;;9.30;99.90;;;;;;4974873;28;20046;-49
2023/04/19 00:44:47;;;;;;;12.70;7.80;;;9.20;99.90;;;;;;4969978;28;20042;-51
2023/04/19 00:47:34;;;;;;;9.30;7.78;;;9.10;99.90;;;;;;4970770;28;20035;-47
2023/04/19 00:50:21;;;;;;;9.82;7.85;;;9.10;99.90;;;;;;4968905;28;20690;-45
2023/04/19 00:53:07;;;;;;;8.65;7.72;;;8.90;99.90;;;;;;4974029;28;20070;-49
2023/04/19 00:55:58;;;;;;;8.95;7.65;;;8.80;99.90;;;;;;4971919;28;20038;-46
2023/04/19 00:58:44;;;;;;;13.15;8.43;;;8.70;99.90;;;;;;4968348;28;20042;-47
2023/04/19 01:01:31;;;;;;;10.68;7.97;;;8.60;99.90;;;;;;4972435;28;20042;-49
2023/04/19 01:04:17;;;;;;;11.45;8.18;;;8.60;99.90;;;;;;4966526;28;20031;-50
2023/04/19 01:07:03;;;;;;;10.95;8.20;;;8.60;99.90;;;;;;4973335;28;20040;-45
2023/04/19 01:09:50;;;;;;;11.60;8.77;;;8.60;99.90;;;;;;4970772;28;20034;-47
2023/04/19 01:12:36;;;;;;;11.73;8.88;;;8.50;99.90;;;;;;4970997;28;20030;-49
2023/04/19 01:15:22;;;;;;;13.57;9.02;;;8.40;99.90;;;;;;4967782;28;20039;-46
2023/04/19 01:18:08;;;;;;;14.05;9.57;;;8.40;99.90;;;;;;4970798;28;20066;-47
2023/04/19 01:20:54;;;;;;;11.50;9.00;;;8.40;99.90;;;;;;4974629;28;20073;-47
2023/04/19 01:23:40;;;;;;;13.57;10.27;;;8.40;99.90;;;;;;4974788;28;20093;-49
2023/04/19 01:26:26;;;;;;;12.95;9.35;;;8.20;99.90;;;;;;4970882;28;20530;-46
2023/04/19 01:29:12;;;;;;;18.30;10.38;;;8.30;99.90;;;;;;4970475;28;20054;-51
2023/04/19 01:31:58;;;;;;;16.33;10.73;;;8.20;99.90;;;;;;4960126;28;20031;-48
2023/04/19 01:34:44;;;;;;;12.45;10.32;;;8.00;99.90;;;;;;4977055;28;20113;-47
2023/04/19 01:37:30;;;;;;;15.15;10.30;;;7.90;99.90;;;;;;4969425;28;20038;-49
2023/04/19 01:40:16;;;;;;;13.23;10.70;;;7.90;99.90;;;;;;4967861;28;20031;-49
2023/04/19 01:43:02;;;;;;;16.02;11.25;;;8.00;99.90;;;;;;4966568;28;20023;-50
2023/04/19 01:45:48;;;;;;;14.43;10.75;;;7.90;99.90;;;;;;4969651;28;20031;-50
2023/04/19 01:48:34;;;;;;;20.58;13.55;;;7.80;99.90;;;;;;4955895;28;20027;-46
2023/04/19 01:51:20;;;;;;;21.13;13.45;;;7.80;99.90;;;;;;4971452;28;20042;-48
2023/04/19 01:54:06;;;;;;;17.45;11.75;;;7.60;99.90;;;;;;4967941;28;20048;-50
2023/04/19 01:56:52;;;;;;;17.45;10.73;;;7.50;99.90;;;;;;4967061;28;20043;-47
2023/04/19 01:59:38;;;;;;;14.23;10.18;;;7.50;99.90;;;;;;4970319;28;20094;-46
2023/04/19 02:02:24;;;;;;;16.15;10.43;;;7.60;99.90;;;;;;4972331;28;20083;-49
2023/04/19 02:05:10;;;;;;;13.77;9.88;;;7.60;99.90;;;;;;4969074;28;20030;-47
2023/04/19 02:07:56;;;;;;;13.93;9.30;;;7.40;99.90;;;;;;4969270;28;20027;-47
2023/04/19 02:10:42;;;;;;;13.88;9.77;;;7.20;99.90;;;;;;4970863;28;20030;-47
2023/04/19 02:13:28;;;;;;;14.80;10.02;;;7.20;99.90;;;;;;4970188;28;20054;-47
2023/04/19 02:16:14;;;;;;;12.43;9.10;;;7.10;99.90;;;;;;4969415;28;20046;-45
2023/04/19 02:19:00;;;;;;;14.77;8.88;;;7.10;99.90;;;;;;4968704;28;20035;-47
2023/04/19 02:21:46;;;;;;;17.55;9.88;;;7.10;99.90;;;;;;4968338;28;20046;-46
2023/04/19 02:24:31;;;;;;;13.20;9.40;;;7.30;99.90;;;;;;4968505;28;20110;-47
2023/04/19 02:27:17;;;;;;;16.38;9.93;;;7.40;99.90;;;;;;4975009;28;20030;-47
2023/04/19 02:30:04;;;;;;;14.63;8.57;;;7.40;99.90;;;;;;4975582;28;20034;-52
2023/04/19 02:32:50;;;;;;;10.50;8.13;;;7.40;99.90;;;;;;4973851;28;20042;-46
2023/04/19 02:35:36;;;;;;;11.20;7.95;;;7.30;99.90;;;;;;4973981;28;20023;-50
2023/04/19 02:38:22;;;;;;;8.98;7.22;;;7.20;99.90;;;;;;4971458;28;20045;-48
2023/04/19 02:41:08;;;;;;;11.88;7.75;;;7.20;99.90;;;;;;4977426;28;20038;-50
2023/04/19 02:43:55;;;;;;;12.43;7.75;;;7.00;99.90;;;;;;4974938;28;20034;-51
2023/04/19 02:46:40;;;;;;;12.52;7.72;;;7.00;99.90;;;;;;4971805;28;20106;-46
2023/04/19 02:49:26;;;;;;;9.70;7.10;;;6.90;99.90;;;;;;4971086;28;20106;-46
2023/04/19 02:52:13;;;;;;;12.45;7.25;;;6.80;99.90;;;;;;4976786;28;20034;-47
2023/04/19 02:54:59;;;;;;;13.57;7.78;;;6.70;99.90;;;;;;4983200;28;20089;-47
2023/04/19 02:57:45;;;;;;;14.07;8.15;;;6.80;99.90;;;;;;4973613;28;20518;-48
2023/04/19 03:00:31;;;;;;;12.55;7.82;;;6.80;99.90;;;;;;4975198;28;20043;-46
2023/04/19 03:03:17;;;;;;;13.20;7.35;;;6.80;99.90;;;;;;4955626;28;20090;-48
2023/04/19 03:06:03;;;;;;;10.35;7.25;;;6.90;99.90;;;;;;4957142;28;20066;-49
2023/04/19 03:08:49;;;;;;;10.02;6.78;;;6.90;99.90;;;;;;4974862;28;20037;-45
2023/04/19 03:11:37;;;;;;;9.18;6.63;;;6.80;99.90;;;;;;4983453;28;20037;-49
2023/04/19 03:14:23;;;;;;;10.02;6.57;;;6.90;99.90;;;;;;4976777;28;20053;-49
2023/04/19 03:17:09;;;;;;;8.65;6.38;;;6.70;99.90;;;;;;4955736;28;20040;-50
2023/04/19 03:19:55;;;;;;;8.93;7.05;;;6.70;99.90;;;;;;4979910;28;20060;-45
2023/04/19 03:22:41;;;;;;;9.88;6.13;;;6.60;99.90;;;;;;4989510;28;20487;-47
2023/04/19 03:25:27;;;;;;;7.78;6.07;;;6.50;99.90;;;;;;4985604;28;20081;-48
2023/04/19 03:28:13;;;;;;;9.07;6.80;;;6.60;99.90;;;;;;4971553;28;20027;-47
2023/04/19 03:30:59;;;;;;;8.00;6.13;;;6.60;99.90;;;;;;4974579;28;20118;-47
2023/04/19 03:33:45;;;;;;;8.82;6.35;;;6.60;99.90;;;;;;4982209;28;20636;-49
2023/04/19 03:36:31;;;;;;;8.50;5.95;;;6.60;99.90;;;;;;4977513;28;20555;-50
2023/04/19 03:39:17;;;;;;;10.40;6.60;;;6.50;99.90;;;;;;4973088;28;20046;-48
2023/04/19 03:42:03;;;;;;;10.70;6.82;;;6.50;99.90;;;;;;4973182;28;20042;-49
2023/04/19 03:44:49;;;;;;;10.73;6.63;;;6.60;99.90;;;;;;4971995;28;20035;-48
2023/04/19 03:47:35;;;;;;;13.50;6.82;;;6.70;99.90;;;;;;4984545;28;20026;-49
2023/04/19 03:50:21;;;;;;;10.80;6.45;;;6.60;99.90;;;;;;4963034;28;20122;-47
2023/04/19 03:53:07;;;;;;;10.90;6.40;;;6.60;99.90;;;;;;4973060;28;20031;-48
2023/04/19 03:55:53;;;;;;;16.20;9.98;;;6.70;99.90;;;;;;4974782;28;20058;-48
2023/04/19 03:58:38;;;;;;;9.07;5.85;;;6.80;99.90;;;;;;4975850;28;20038;-49
2023/04/19 04:01:25;;;;;;;11.30;6.03;;;6.80;99.90;;;;;;4980583;28;20507;-48
2023/04/19 04:04:12;;;;;;;10.13;5.97;;;6.80;99.90;;;;;;4978696;28;20083;-47
2023/04/19 04:06:57;;;;;;;7.35;5.55;;;6.80;99.90;;;;;;4972834;28;20530;-48
2023/04/19 04:09:46;;;;;;;10.38;5.28;;;6.90;99.90;;;;;;4972310;28;20035;-48
2023/04/19 04:12:32;;;;;;;9.07;5.80;;;6.80;99.90;;;;;;4976018;28;20039;-46
2023/04/19 04:15:17;;;;;;;8.52;5.85;;;6.80;99.90;;;;;;4976931;28;20118;-47
2023/04/19 04:18:04;;;;;;;11.02;5.60;;;6.80;99.90;;;;;;4956958;28;20444;-47
2023/04/19 04:20:50;;;;;;;11.27;6.28;;;6.70;99.90;;;;;;4976818;28;20039;-48
2023/04/19 04:23:37;;;;;;;11.18;6.20;;;6.70;99.90;;;;;;4975588;28;20034;-48
2023/04/19 04:26:24;;;;;;;11.70;6.15;;;6.70;99.90;;;;;;4982881;28;20054;-48
2023/04/19 04:29:10;;;;;;;9.43;6.07;;;6.60;99.90;;;;;;4987307;28;20435;-47
2023/04/19 04:31:56;;;;;;;10.05;5.50;;;6.50;99.90;;;;;;4985209;28;20595;-48
2023/04/19 04:34:43;;;;;;;12.68;6.15;;;6.60;99.90;;;;;;4972143;28;20077;-48
2023/04/19 04:37:32;;;;;;;9.25;5.47;;;6.60;99.90;;;;;;4952871;28;20074;-51
2023/04/19 04:40:18;;;;;;;7.93;5.13;;;6.50;99.90;;;;;;4991310;28;20394;-51
2023/04/19 04:43:04;;;;;;;10.68;5.43;;;6.60;99.90;;;;;;4987540;28;20537;-46
2023/04/19 04:45:51;;;;;;;9.38;5.60;;;6.60;99.90;;;;;;4976548;28;20042;-49
2023/04/19 04:48:37;;;;;;;9.48;6.03;;;6.60;99.90;;;;;;4972359;28;20037;-47
2023/04/19 04:51:23;;;;;;;8.15;5.78;;;6.70;99.90;;;;;;4972718;28;20027;-51
2023/04/19 04:54:09;;;;;;;8.10;5.78;;;6.60;99.90;;;;;;4976229;28;20038;-51
2023/04/19 04:56:55;;;;;;;9.70;5.70;;;6.70;99.90;;;;;;4979876;28;20068;-47
2023/04/19 04:59:41;;;;;;;7.28;5.38;;;6.60;99.90;;;;;;4972649;28;20072;-46
2023/04/19 05:02:27;;;;;;;9.23;5.20;;;6.60;99.90;;;;;;4952006;28;20028;-48
2023/04/19 05:05:13;;;;;;;12.80;6.85;;;6.60;99.90;;;;;;4958543;28;20121;-51
2023/04/19 05:08:00;;;;;;;10.70;5.75;;;6.60;99.90;;;;;;4979975;28;20572;-52
2023/04/19 05:10:46;;;;;;;9.75;6.65;;;6.60;99.90;;;;;;4969079;28;20038;-52
2023/04/19 05:13:31;;;;;;;8.05;5.25;;;6.60;99.90;;;;;;4957680;28;20114;-48
2023/04/19 05:16:18;;;;;;;9.70;5.03;;;6.60;99.90;;;;;;4971441;28;20034;-52
2023/04/19 05:19:04;;;;;;;9.43;5.22;;;6.50;99.90;;;;;;4975547;28;20455;-50
2023/04/19 05:21:50;;;;;;;7.95;5.25;;;6.50;99.90;;;;;;4973408;28;20094;-50
2023/04/19 05:24:36;;;;;;;7.95;4.88;;;6.50;99.90;;;;;;4977547;28;20499;-50
2023/04/19 05:27:22;;;;;;;9.43;5.20;;;6.50;99.90;;;;;;4972550;28;20110;-50
2023/04/19 05:30:08;;;;;;;7.18;5.00;;;6.50;99.90;;;;;;4971641;28;20026;-49
2023/04/19 05:32:54;;;;;;;8.07;5.25;;;6.60;99.90;;;;;;4972957;28;20061;-53
2023/04/19 05:35:40;;;;;;;7.30;5.10;;;6.60;99.90;;;;;;4982704;28;20035;-51
2023/04/19 05:38:26;;;;;;;6.05;4.63;;;6.60;99.90;;;;;;4970766;28;20035;-50
2023/04/19 05:41:12;;;;;;;8.13;5.25;;;6.70;99.90;;;;;;4953033;28;20649;-52
2023/04/19 05:43:58;;;;;;;6.63;5.05;;;6.70;99.90;;;;;;4953785;28;20497;-55
2023/04/19 05:46:44;;;;;;;6.18;4.82;;;6.60;99.90;;;;;;4974894;28;20100;-55
2023/04/19 05:49:30;;;;;;;9.20;4.90;;;6.50;99.90;;;;;;4982929;28;20054;-52
2023/04/19 05:52:16;;;;;;;9.18;5.55;;;6.50;99.90;;;;;;4990379;28;20515;-52
2023/04/19 05:55:02;;;;;;;8.45;5.13;;;6.60;99.90;;;;;;4981695;28;20034;-51
2023/04/19 05:57:48;;;;;;;10.23;5.18;;;6.60;99.90;;;;;;4957382;28;20027;-53
2023/04/19 06:00:34;;;;;;;6.65;4.43;;;6.60;99.90;;;;;;4976251;28;20139;-51
2023/04/19 06:03:20;;;;;;;8.88;5.28;;;6.50;99.90;;;;;;4985551;28;20034;-50
2023/04/19 06:06:06;;;;;;;6.95;5.43;;;6.60;99.90;;;;;;4994239;28;20114;-53
2023/04/19 06:08:52;;;;;;;9.00;5.35;;;6.70;99.90;;;;;;4956704;28;20038;-51
2023/04/19 06:11:38;;;;;;;6.90;4.47;;;6.90;99.90;;;;;;4944163;28;20042;-50
2023/04/19 06:14:27;;;;;;;6.28;4.82;;;6.80;99.90;;;;;;4977668;28;20082;-51
2023/04/19 06:17:15;;;;;;;7.97;4.70;;;6.70;99.90;;;;;;4978639;28;20497;-49
2023/04/19 06:20:04;;;;;;;7.20;4.72;;;6.80;99.90;;;;;;4974085;28;20043;-52
2023/04/19 06:22:50;;;;;;;9.43;4.88;;;6.80;99.90;;;;;;4976650;28;20093;-49
2023/04/19 06:25:36;;;;;;;7.03;4.97;;;6.80;99.90;;;;;;4975110;28;20500;-48
2023/04/19 06:28:22;;;;;;;8.63;4.47;;;6.80;99.90;;;;;;4982186;28;20045;-52
2023/04/19 06:31:08;;;;;;;5.97;4.35;;;6.70;99.90;;;;;;4985285;28;20034;-49
2023/04/19 06:33:54;;;;;;;6.60;4.25;;;6.80;99.90;;;;;;4974586;28;20122;-52
2023/04/19 06:36:40;;;;;;;10.32;5.03;;;6.80;99.90;;;;;;4974302;28;20031;-50
2023/04/19 06:39:26;;;;;;;7.55;4.22;;;6.80;99.90;;;;;;4972146;28;20085;-49
2023/04/19 06:42:12;;;;;;;6.95;4.10;;;6.60;99.90;;;;;;4982739;28;20038;-49
2023/04/19 06:44:58;;;;;;;6.55;4.22;;;6.40;99.90;;;;;;4970002;28;20154;-50
2023/04/19 06:47:44;;;;;;;9.98;4.53;;;6.50;99.90;;;;;;4973885;28;20029;-52
2023/04/19 06:50:30;;;;;;;7.47;4.65;;;6.60;99.90;;;;;;4974422;28;20042;-52
2023/04/19 06:53:16;;;;;;;6.53;4.60;;;6.80;99.90;;;;;;4962798;28;20035;-54
2023/04/19 06:56:03;;;;;;;6.55;4.47;;;6.80;99.90;;;;;;4976612;28;20033;-53
2023/04/19 06:58:49;;;;;;;6.70;4.70;;;7.00;99.90;;;;;;4973194;28;20093;-52
2023/04/19 07:01:35;;;;;;;6.97;4.93;;;6.80;99.90;;;;;;4973584;28;20388;-51
2023/04/19 07:04:21;;;;;;;9.93;4.65;;;6.80;99.90;;;;;;4974576;28;20031;-52
2023/04/19 07:07:07;;;;;;;8.30;4.40;;;6.90;99.90;;;;;;4968938;28;20071;-52
2023/04/19 07:09:53;;;;;;;6.25;4.28;;;6.90;99.90;;;;;;4976709;28;20035;-51
2023/04/19 07:12:39;;;;;;;7.75;4.13;;;6.80;99.90;;;;;;4993621;28;20026;-50
2023/04/19 07:15:25;;;;;;;10.38;4.70;;;6.90;99.90;;;;;;4990061;28;20031;-48
2023/04/19 07:18:13;;;;;;;7.32;4.90;;;7.10;99.90;;;;;;4973618;28;20397;-50
2023/04/19 07:20:59;;;;;;;8.30;4.20;;;7.20;99.90;;;;;;4974694;28;20047;-49
2023/04/19 07:23:45;;;;;;;6.25;4.38;;;7.10;99.90;;;;;;4979256;28;20038;-50
2023/04/19 07:26:32;;;;;;;5.70;4.32;;;7.10;99.90;;;;;;4969037;28;20062;-51
2023/04/19 07:29:18;;;;;;;6.72;4.18;;;7.10;99.90;;;;;;4978447;28;20122;-51
2023/04/19 07:32:04;;;;;;;10.10;4.85;;;7.20;99.90;;;;;;4974286;28;20058;-51
2023/04/19 07:34:50;;;;;;;9.70;4.65;;;7.40;99.90;;;;;;4974352;28;20046;-52
2023/04/19 07:37:36;;;;;;;6.50;4.45;;;7.30;99.90;;;;;;4982599;28;20305;-52
2023/04/19 07:40:22;;;;;;;12.48;4.55;;;7.40;99.90;;;;;;4977692;28;20504;-53
2023/04/19 07:43:08;;;;;;;6.35;4.80;;;7.30;99.90;;;;;;4978808;28;20039;-48
2023/04/19 07:45:54;;;;;;;8.85;4.80;;;7.30;99.90;;;;;;4977189;28;20094;-50
2023/04/19 07:48:40;;;;;;;7.28;4.75;;;7.40;99.90;;;;;;4973515;28;20046;-52
2023/04/19 07:51:26;;;;;;;7.20;4.70;;;7.60;99.90;;;;;;4969658;28;20030;-52
2023/04/19 07:54:12;;;;;;;8.45;4.70;;;7.70;99.60;;;;;;4978166;28;20026;-51
2023/04/19 07:56:58;;;;;;;6.93;4.32;;;7.70;99.80;;;;;;4954145;28;20547;-55
2023/04/19 07:59:48;;;;;;;10.48;4.82;;;7.60;99.90;;;;;;4956656;28;20027;-49
2023/04/19 08:02:33;;;;;;;9.65;4.55;;;7.60;99.90;;;;;;4975187;28;20508;-48
2023/04/19 08:05:19;;;;;;;8.55;4.60;;;7.50;99.90;;;;;;4982890;28;20031;-49
2023/04/19 08:08:05;;;;;;;6.82;4.35;;;7.80;99.90;;;;;;4990347;28;20130;-51
2023/04/19 08:10:54;;;;;;;8.15;5.13;;;7.80;99.60;;;;;;4975182;28;20235;-54
2023/04/19 08:13:40;;;;;;;8.27;5.00;;;7.70;99.70;;;;;;4970270;28;20090;-51
2023/04/19 08:16:27;;;;;;;7.45;4.85;;;7.60;99.90;;;;;;4967034;28;20042;-55
2023/04/19 08:19:13;;;;;;;12.52;4.88;;;7.70;99.90;;;;;;4982722;28;20105;-55
2023/04/19 08:21:59;;;;;;;7.00;4.90;;;7.90;99.90;;;;;;4991562;28;20199;-52
2023/04/19 08:24:45;;;;;;;7.32;4.72;;;8.10;99.50;;;;;;4965709;28;20027;-47
2023/04/19 08:27:30;;;;;;;6.13;4.47;;;8.20;99.30;;;;;;4970947;28;20024;-54
2023/04/19 08:30:16;;;;;;;5.47;4.68;;;8.30;99.00;;;;;;4978665;28;20119;-47
2023/04/19 08:33:02;;;;;;;9.90;5.05;;;8.20;98.80;;;;;;4971502;28;20114;-50
2023/04/19 08:35:48;;;;;;;14.07;4.80;;;8.10;98.80;;;;;;4972936;28;20031;-52
2023/04/19 08:38:37;;;;;;;6.82;4.50;;;8.30;98.40;;;;;;4969649;28;20034;-50
2023/04/19 08:41:24;;;;;;;8.18;4.82;;;8.30;98.50;;;;;;4967566;28;20118;-49
2023/04/19 08:44:12;;;;;;;10.60;5.30;;;8.50;98.50;;;;;;4975400;28;20499;-54
2023/04/19 08:47:00;;;;;;;7.22;4.70;;;8.50;98.20;;;;;;4972008;28;20030;-48
2023/04/19 08:49:47;;;;;;;9.68;4.68;;;8.50;97.90;;;;;;4966951;28;20035;-53
2023/04/19 08:52:35;;;;;;;7.00;4.38;;;8.60;98.10;;;;;;4967193;28;20133;-52
2023/04/19 08:55:21;;;;;;;6.07;4.55;;;8.80;97.60;;;;;;4980879;28;20034;-51
2023/04/19 08:58:07;;;;;;;10.05;4.78;;;8.90;97.00;;;;;;4971515;28;20033;-53
2023/04/19 09:00:53;;;;;;;10.73;4.90;;;9.20;97.70;;;;;;4969753;28;20037;-56
2023/04/19 09:03:47;;;;;;;7.40;4.68;;;9.50;97.00;;;;;;4972218;28;20030;-49
2023/04/19 09:06:37;;;;;;;7.72;4.47;;;9.70;96.40;;;;;;4983466;28;20173;-52
2023/04/19 09:09:25;;;;;;;8.93;5.03;;;9.80;95.80;;;;;;4987517;28;20035;-53
2023/04/19 09:12:16;;;;;;;7.18;4.57;;;9.50;95.90;;;;;;4985993;28;20019;-55
2023/04/19 09:15:04;;;;;;;8.93;4.90;;;9.20;96.50;;;;;;4971399;28;20065;-53
2023/04/19 09:18:05;;;;;;;8.43;5.13;;;9.30;96.10;;;;;;4970348;28;20030;-54
2023/04/19 09:20:56;;;;;;;9.57;4.50;;;9.50;95.60;;;;;;4980139;28;20031;-54
2023/04/19 09:23:47;;;;;;;13.68;5.32;;;9.40;95.10;;;;;;4970609;28;20026;-54
2023/04/19 09:26:33;;;;;;;6.22;4.53;;;9.40;95.20;;;;;;4969969;28;20035;-50
2023/04/19 09:29:20;;;;;;;6.68;4.80;;;9.30;95.50;;;;;;4971661;28;20089;-51
2023/04/19 09:32:06;;;;;;;7.82;4.85;;;9.50;95.50;;;;;;4968523;28;20037;-56
2023/04/19 09:34:55;;;;;;;10.93;4.78;;;9.70;95.30;;;;;;4966435;28;20121;-54
2023/04/19 09:37:41;;;;;;;10.88;4.72;;;9.90;95.20;;;;;;4967826;28;20045;-50
2023/04/19 09:40:28;;;;;;;8.68;5.00;;;10.10;95.50;;;;;;4964169;28;20127;-45
2023/04/19 09:43:23;;;;;;;7.55;4.88;;;10.20;94.10;;;;;;4983891;28;20030;-49
2023/04/19 09:46:32;;;;;;;7.55;4.65;;;10.00;93.80;;;;;;4956480;28;20085;-50
2023/04/19 09:49:23;;;;;;;9.23;4.50;;;9.90;94.20;;;;;;4982674;28;20030;-51
2023/04/19 09:52:12;;;;;;;11.32;4.97;;;9.80;94.40;;;;;;4966436;28;20034;-51
2023/04/19 09:55:03;;;;;;;7.43;5.05;;;10.00;95.00;;;;;;4956518;29;20027;-45
2023/04/19 09:57:51;;;;;;;6.30;4.82;;;10.00;94.20;;;;;;4958209;28;20030;-52
2023/04/19 10:00:39;;;;;;;7.18;4.28;;;10.20;95.10;;;;;;4978562;28;20451;-47
2023/04/19 10:03:28;;;;;;;9.90;5.07;;;10.40;93.70;;;;;;4950890;28;20019;-45
2023/04/19 10:06:18;;;;;;;9.27;5.55;;;10.30;93.10;;;;;;4968780;28;20420;-51
2023/04/19 10:09:05;;;;;;;11.02;5.40;;;10.60;93.60;;;;;;4975424;28;20424;-54
2023/04/19 10:11:52;;;;;;;9.13;5.20;;;10.90;93.40;;;;;;4976548;28;20022;-48
2023/04/19 10:14:39;;;;;;;7.35;5.05;;;11.00;92.20;;;;;;4990963;28;20043;-48
2023/04/19 10:17:25;;;;;;;6.22;4.63;;;10.90;92.20;;;;;;4974567;28;20431;-49
2023/04/19 10:20:20;;;;;;;6.20;4.18;;;11.10;91.90;;;;;;4975661;28;20396;-54
2023/04/19 10:23:08;;;;;;;8.02;4.78;;;11.10;91.30;;;;;;4974533;28;20518;-51
2023/04/19 10:25:58;;;;;;;5.65;4.50;;;11.00;90.90;;;;;;4980713;28;20045;-56
2023/04/19 10:28:44;;;;;;;5.93;4.22;;;10.90;90.80;;;;;;4982694;28;20546;-49
2023/04/19 10:31:30;;;;;;;6.70;4.55;;;11.10;90.60;;;;;;4965892;28;20046;-47
2023/04/19 10:34:36;;;;;;;5.93;4.20;;;11.20;89.50;;;;;;4959464;28;20031;-50
2023/04/19 10:37:24;;;;;;;6.28;4.35;;;11.10;89.10;;;;;;4980823;28;20055;-53
2023/04/19 10:40:11;;;;;;;5.78;4.82;;;11.40;89.00;;;;;;4970759;28;20575;-50
2023/04/19 10:43:09;;;;;;;11.93;5.60;;;11.20;87.40;;;;;;4969463;28;20027;-50
2023/04/19 10:46:08;;;;;;;6.93;4.78;;;11.00;87.30;;;;;;4965116;28;20033;-47
2023/04/19 10:48:59;;;;;;;6.85;4.10;;;11.00;86.90;;;;;;4963806;28;20023;-49
2023/04/19 10:51:53;;;;;;;5.95;4.30;;;11.20;87.20;;;;;;4971135;28;20031;-46
2023/04/19 10:54:39;;;;;;;7.32;4.97;;;11.20;86.90;;;;;;4988893;28;20080;-47
2023/04/19 10:57:26;;;;;;;6.00;4.40;;;11.10;86.50;;;;;;4988214;28;20073;-50
2023/04/19 11:00:31;;;;;;;6.50;4.60;;;11.40;86.40;;;;;;4984149;28;20053;-48
2023/04/19 11:03:42;;;;;;;6.67;4.73;;;11.40;85.60;;;;;;4974730;28;20031;-45
2023/04/19 11:06:28;;;;;;;9.50;4.57;;;11.50;85.20;;;;;;4976728;28;20034;-47
2023/04/19 11:09:21;;;;;;;6.75;3.92;;;11.60;84.90;;;;;;4975603;28;20034;-50
2023/04/19 11:12:10;;;;;;;7.53;4.43;;;11.70;84.10;;;;;;4973451;28;20031;-44
2023/04/19 11:14:58;;;;;;;6.07;4.75;;;11.60;83.10;;;;;;4974590;28;20023;-50
2023/04/19 11:17:49;;;;;;;6.05;4.20;;;11.60;83.80;;;;;;4974846;28;20102;-45
2023/04/19 11:20:35;;;;;;;6.78;4.30;;;11.70;83.30;;;;;;4971875;28;20089;-50
2023/04/19 11:23:21;;;;;;;6.45;4.70;;;11.80;82.10;;;;;;4974225;28;20296;-46
2023/04/19 11:26:10;;;;;;;9.35;4.80;;;11.60;81.50;;;;;;4975659;28;20381;-47
2023/04/19 11:28:56;;;;;;;7.78;4.40;;;11.50;82.10;;;;;;4961642;28;20492;-43
2023/04/19 11:31:46;;;;;;;6.20;4.35;;;11.70;81.70;;;;;;4970297;28;20042;-45
2023/04/19 11:34:39;;;;;;;6.57;4.20;;;12.10;82.20;;;;;;4982817;28;20369;-48
2023/04/19 11:37:31;;;;;;;9.30;5.45;;;12.20;81.20;;;;;;4985153;28;20589;-50
2023/04/19 11:40:19;;;;;;;6.47;5.03;;;12.20;81.60;;;;;;4970668;28;20043;-47
2023/04/19 11:43:05;;;;;;;10.07;4.53;;;12.30;81.30;;;;;;4978821;28;20431;-51
2023/04/19 11:45:51;;;;;;;9.70;4.53;;;12.40;81.40;;;;;;4961131;28;20078;-49
2023/04/19 11:48:38;;;;;;;7.30;4.72;;;12.50;80.30;;;;;;4969879;28;20035;-47
2023/04/19 11:51:25;;;;;;;7.72;4.75;;;12.20;80.60;;;;;;4975445;28;20496;-47
2023/04/19 11:54:13;;;;;;;12.32;5.18;;;12.10;80.10;;;;;;4944079;28;20050;-49
2023/04/19 11:57:04;;;;;;;7.57;5.18;;;12.00;81.20;;;;;;4973706;28;20034;-44
2023/04/19 12:00:10;;;;;;;6.65;4.85;;;12.10;82.50;;;;;;4968693;28;20085;-46
2023/04/19 12:02:58;;;;;;;8.75;5.10;;;12.30;82.50;;;;;;4980075;28;20484;-47
2023/04/19 12:05:57;;;;;;;6.93;5.18;;;12.30;82.10;;;;;;4968898;28;20568;-44
2023/04/19 12:08:47;;;;;;;8.68;5.00;;;12.00;82.30;;;;;;4982478;28;20041;-49
2023/04/19 12:11:48;;;;;;;10.73;6.22;;;12.00;82.80;;;;;;4979023;28;20033;-52
2023/04/19 12:14:34;;;;;;;7.65;5.03;;;12.00;83.80;;;;;;4970404;28;20019;-51
2023/04/19 12:17:20;;;;;;;9.93;5.15;;;12.00;83.80;;;;;;4971304;28;20038;-52
2023/04/19 12:20:07;;;;;;;9.77;4.78;;;11.90;83.10;;;;;;4943429;28;20134;-55
2023/04/19 12:22:53;;;;;;;7.68;5.00;;;11.90;83.80;;;;;;4964890;28;20081;-50
2023/04/19 12:25:40;;;;;;;8.15;5.13;;;11.80;84.50;;;;;;4982102;28;20092;-54
2023/04/19 12:28:26;;;;;;;8.57;5.38;;;11.90;83.80;;;;;;4967078;28;20090;-46
2023/04/19 12:31:12;;;;;;;10.52;5.32;;;11.90;84.60;;;;;;4970312;28;20034;-52
2023/04/19 12:33:58;;;;;;;10.57;5.80;;;12.20;84.20;;;;;;4969493;28;20058;-48
2023/04/19 12:36:44;;;;;;;7.80;5.60;;;12.10;82.50;;;;;;4972605;28;20046;-50
2023/04/19 12:39:30;;;;;;;8.45;5.40;;;11.90;82.90;;;;;;4969058;28;20475;-50
2023/04/19 12:42:16;;;;;;;7.07;5.40;;;11.70;83.80;;;;;;4971244;28;20035;-49
2023/04/19 12:45:02;;;;;;;8.20;5.50;;;11.70;84.70;;;;;;4972413;28;20322;-50
2023/04/19 12:47:48;;;;;;;10.73;5.30;;;11.80;84.30;;;;;;4971086;28;20031;-52
2023/04/19 12:50:34;;;;;;;11.27;5.78;;;12.00;83.90;;;;;;4956445;28;20507;-51
2023/04/19 12:53:23;;;;;;;11.10;6.53;;;12.40;83.70;;;;;;4972448;28;20039;-49
2023/04/19 12:56:10;;;;;;;12.88;5.22;;;12.40;80.50;;;;;;4968114;28;20033;-47
2023/04/19 12:58:56;;;;;;;6.18;4.80;;;12.30;81.00;;;;;;4964051;28;20050;-53
2023/04/19 13:01:42;;;;;;;5.55;4.68;;;12.30;81.90;;;;;;4976605;28;20519;-51
2023/04/19 13:04:28;;;;;;;9.73;5.32;;;12.40;82.80;;;;;;4966899;28;20042;-47
2023/04/19 13:07:14;;;;;;;8.43;5.22;;;12.50;83.30;;;;;;4972753;28;20125;-49
2023/04/19 13:10:00;;;;;;;11.23;5.35;;;12.60;82.40;;;;;;4957063;28;20042;-50
2023/04/19 13:12:46;;;;;;;7.75;4.72;;;12.30;84.70;;;;;;4972261;28;20054;-49
2023/04/19 13:15:32;;;;;;;7.47;4.70;;;12.20;84.70;;;;;;4970405;28;20042;-50
2023/04/19 13:18:18;;;;;;;7.45;4.60;;;12.20;84.80;;;;;;4968729;28;20043;-51
2023/04/19 13:21:04;;;;;;;6.63;4.90;;;12.40;84.60;;;;;;4972694;28;20030;-47
2023/04/19 13:23:50;;;;;;;7.43;4.65;;;12.20;82.00;;;;;;4975247;28;20100;-48
2023/04/19 13:26:37;;;;;;;6.82;4.88;;;12.10;82.70;;;;;;4983329;28;20369;-46
2023/04/19 13:29:23;;;;;;;8.93;5.45;;;12.30;83.30;;;;;;4971290;28;20583;-46
2023/04/19 13:32:11;;;;;;;6.85;4.80;;;12.90;81.90;;;;;;4952510;28;20473;-48
2023/04/19 13:34:57;;;;;;;8.48;4.40;;;13.10;81.40;;;;;;4967764;28;20034;-46
2023/04/19 13:37:45;;;;;;;10.23;4.75;;;13.00;80.60;;;;;;4985373;28;20027;-50
2023/04/19 13:40:31;;;;;;;7.68;4.40;;;12.90;81.00;;;;;;4969798;28;20039;-48
2023/04/19 13:43:17;;;;;;;7.18;5.18;;;12.60;79.40;;;;;;4975411;28;20066;-48
2023/04/19 13:46:03;;;;;;;6.22;4.60;;;12.30;80.60;;;;;;4966065;28;20035;-48
2023/04/19 13:48:49;;;;;;;5.65;4.70;;;12.30;81.60;;;;;;4970399;28;20043;-50
2023/04/19 13:51:35;;;;;;;7.20;5.05;;;12.40;81.40;;;;;;4973550;28;20031;-48
2023/04/19 13:54:21;;;;;;;9.38;4.72;;;12.60;80.40;;;;;;4985726;28;20030;-47
2023/04/19 13:57:07;;;;;;;8.35;4.63;;;12.90;79.90;;;;;;4971467;28;20492;-48
2023/04/19 13:59:53;;;;;;;9.30;5.15;;;13.50;80.50;;;;;;4970921;28;20561;-48
2023/04/19 14:02:39;;;;;;;7.60;5.25;;;14.00;78.40;;;;;;4951379;29;20044;-49
2023/04/19 14:05:25;;;;;;;8.25;5.35;;;13.60;78.30;;;;;;4972402;28;20089;-48
2023/04/19 14:08:11;;;;;;;5.13;4.25;;;13.00;78.40;;;;;;4975510;28;20027;-52
2023/04/19 14:10:57;;;;;;;7.30;4.65;;;12.90;79.30;;;;;;4971245;28;20114;-47
2023/04/19 14:13:44;;;;;;;12.48;4.90;;;12.80;78.80;;;;;;4980782;28;20040;-50
2023/04/19 14:16:30;;;;;;;6.55;4.93;;;13.00;79.30;;;;;;4977927;28;20123;-52
2023/04/19 14:19:16;;;;;;;6.97;4.50;;;13.10;79.50;;;;;;4954749;28;20037;-49
2023/04/19 14:22:01;;;;;;;8.38;4.93;;;13.20;78.10;;;;;;4968995;28;20032;-53
2023/04/19 14:24:47;;;;;;;8.93;6.20;;;12.90;78.20;;;;;;4964554;28;20034;-50
2023/04/19 14:27:33;;;;;;;9.05;4.82;;;12.50;79.00;;;;;;4970075;28;20056;-50
2023/04/19 14:30:19;;;;;;;7.57;5.18;;;12.50;79.60;;;;;;4990065;28;20042;-51
2023/04/19 14:33:05;;;;;;;6.07;5.40;;;12.60;80.10;;;;;;4993310;28;20039;-52